createdAt,value
2023-04-05T00:01:21.683Z,72.16
2023-04-05T00:05:30.374Z,72.46
2023-04-05T00:09:32.377Z,72.59
2023-04-05T00:13:34.410Z,72.65
2023-04-05T00:17:36.443Z,73.07
2023-04-05T00:21:39.584Z,73.55
2023-04-05T00:25:41.585Z,72.87
2023-04-05T00:29:43.578Z,73.75
2023-04-05T00:33:46.410Z,73.37
2023-04-05T00:37:48.490Z,73.41
2023-04-05T00:41:50.545Z,73.26
2023-04-05T00:45:53.291Z,73.15
2023-04-05T00:49:55.422Z,74.64
2023-04-05T00:53:57.907Z,73.67
2023-04-05T00:58:00.486Z,73.10
2023-04-05T01:02:17.097Z,73.17
2023-04-05T01:06:44.168Z,72.93
2023-04-05T01:10:55.210Z,72.90
2023-04-05T01:14:57.584Z,73.17
2023-04-05T01:18:59.739Z,73.17
2023-04-05T01:23:16.478Z,72.48
2023-04-05T01:27:45.760Z,72.22
2023-04-05T01:31:54.369Z,72.86
2023-04-05T01:36:08.758Z,73.16
2023-04-05T01:40:11.309Z,73.28
2023-04-05T01:44:13.297Z,73.51
2023-04-05T01:48:15.329Z,74.04
2023-04-05T01:52:18.098Z,75.37
2023-04-05T01:56:20.879Z,75.18
2023-04-05T02:00:23.264Z,75.39
2023-04-05T02:04:26.298Z,75.29
2023-04-05T02:08:28.348Z,74.90
2023-04-05T02:12:30.522Z,74.77
2023-04-05T02:16:34.163Z,75.19
2023-04-05T02:20:36.289Z,74.92
2023-04-05T02:24:38.350Z,74.82
2023-04-05T02:28:40.695Z,75.40
2023-04-05T02:32:42.744Z,75.41
2023-04-05T02:36:45.240Z,74.74
2023-04-05T02:40:49.453Z,75.31
2023-04-05T02:44:52.547Z,75.82
2023-04-05T02:48:56.356Z,77.35
2023-04-05T02:53:00.800Z,77.16
2023-04-05T02:57:04.383Z,77.64
2023-04-05T03:01:17.736Z,78.65
2023-04-05T03:05:22.538Z,78.30
2023-04-05T03:09:27.602Z,77.97
2023-04-05T03:13:34.079Z,78.40
2023-04-05T03:17:38.751Z,77.60
2023-04-05T03:21:42.122Z,75.98
2023-04-05T03:26:01.640Z,76.61
2023-04-05T03:30:07.604Z,76.38
2023-04-05T03:34:14.640Z,77.42
2023-04-05T03:38:21.383Z,77.84
2023-04-05T03:42:41.520Z,77.67
2023-04-05T03:46:43.991Z,76.76
2023-04-05T03:50:48.992Z,77.75
2023-04-05T03:54:51.412Z,78.34
2023-04-05T03:58:57.445Z,78.59
2023-04-05T04:03:04.100Z,79.46
2023-04-05T04:07:06.341Z,77.98
2023-04-05T04:11:09.296Z,77.76
2023-04-05T04:15:14.174Z,77.39
2023-04-05T04:19:33.219Z,76.92
2023-04-05T04:23:40.599Z,77.89
2023-04-05T04:28:21.187Z,78.10
2023-04-05T04:32:52.054Z,79.10
2023-04-05T04:37:17.789Z,80.66
2023-04-05T04:41:47.010Z,81.00
2023-04-05T04:46:11.726Z,81.78
2023-04-05T04:50:28.640Z,81.93
2023-04-05T04:54:34.140Z,81.34
2023-04-05T04:58:36.127Z,81.51
2023-04-05T05:02:44.066Z,80.96
2023-04-05T05:06:53.992Z,81.57
2023-04-05T05:10:56.551Z,80.32
2023-04-05T05:14:58.865Z,80.72
2023-04-05T05:19:01.574Z,80.51
2023-04-05T05:23:13.325Z,80.00
2023-04-05T05:27:15.483Z,79.31
2023-04-05T05:31:17.841Z,77.71
2023-04-05T05:35:20.096Z,78.43
2023-04-05T05:39:23.443Z,80.71
2023-04-05T05:43:25.848Z,80.80
2023-04-05T05:47:27.986Z,80.14
2023-04-05T05:51:30.061Z,80.11
2023-04-05T05:55:32.114Z,80.34
2023-04-05T05:59:34.138Z,80.72
2023-04-05T06:03:36.267Z,79.59
2023-04-05T06:07:38.481Z,79.06
2023-04-05T06:11:53.307Z,79.69
2023-04-05T06:15:57.586Z,79.32
2023-04-05T06:19:59.602Z,82.87
2023-04-05T06:24:01.636Z,64.44
2023-04-05T06:28:05.226Z,67.87
2023-04-05T06:32:07.272Z,60.60
2023-04-05T06:36:09.795Z,51.71
2023-04-05T06:40:12.551Z,45.00
2023-04-05T06:44:14.569Z,41.04
2023-04-05T06:48:16.612Z,38.48
2023-04-05T06:52:18.592Z,36.77
2023-04-05T06:56:21.647Z,36.40
2023-04-05T07:00:23.758Z,37.02
2023-04-05T07:04:26.696Z,40.78
2023-04-05T07:08:31.411Z,44.31
2023-04-05T07:12:33.408Z,48.01
2023-04-05T07:16:35.584Z,50.90
2023-04-05T07:20:38.007Z,52.13
2023-04-05T07:24:40.084Z,52.88
2023-04-05T07:28:42.308Z,53.52
2023-04-05T07:32:44.415Z,54.74
2023-04-05T07:36:47.000Z,55.39
2023-04-05T07:40:50.170Z,55.54
2023-04-05T07:44:52.117Z,55.76
2023-04-05T07:48:54.425Z,56.12
2023-04-05T07:52:56.420Z,56.97
2023-04-05T07:56:58.501Z,56.00
2023-04-05T08:01:04.894Z,55.16
2023-04-05T08:05:07.339Z,54.10
2023-04-05T08:09:10.714Z,53.34
2023-04-05T08:13:12.764Z,53.51
2023-04-05T08:17:16.209Z,53.15
2023-04-05T08:21:18.182Z,52.24
2023-04-05T08:25:20.339Z,51.14
2023-04-05T08:29:22.349Z,50.54
2023-04-05T08:33:26.412Z,50.42
2023-04-05T08:37:28.495Z,49.49
2023-04-05T08:41:37.365Z,49.28
2023-04-05T08:45:46.734Z,48.68
2023-04-05T08:49:49.014Z,48.19
2023-04-05T08:53:51.218Z,47.97
2023-04-05T08:57:58.925Z,47.63
2023-04-05T09:02:04.100Z,46.73
2023-04-05T09:06:09.120Z,46.74
2023-04-05T09:10:13.535Z,46.99
2023-04-05T09:14:16.589Z,45.40
2023-04-05T09:18:26.165Z,45.18
2023-04-05T09:22:29.411Z,45.46
2023-04-05T09:26:32.500Z,45.38
2023-04-05T09:30:37.263Z,45.18
2023-04-05T09:34:42.135Z,45.06
2023-04-05T09:38:51.239Z,43.87
2023-04-05T09:42:53.996Z,44.28
2023-04-05T09:46:56.008Z,44.69
2023-04-05T09:51:12.525Z,44.44
2023-04-05T09:55:26.752Z,43.62
2023-04-05T09:59:28.986Z,43.77
2023-04-05T10:03:31.128Z,44.06
2023-04-05T10:07:34.506Z,43.08
2023-04-05T10:11:38.597Z,42.64
2023-04-05T10:15:45.725Z,43.12
2023-04-05T10:19:56.581Z,42.94
2023-04-05T10:24:10.357Z,43.38
2023-04-05T10:28:22.273Z,43.91
2023-04-05T10:32:38.656Z,43.29
2023-04-05T10:37:03.277Z,42.89
2023-04-05T10:41:14.957Z,43.50
2023-04-05T10:45:19.848Z,43.20
2023-04-05T10:49:39.860Z,42.00
2023-04-05T10:53:42.212Z,42.17
2023-04-05T10:57:46.166Z,41.48
2023-04-05T11:01:48.737Z,41.70
2023-04-05T11:06:22.596Z,42.53
2023-04-05T11:10:25.316Z,42.47
2023-04-05T11:14:37.356Z,42.14
2023-04-05T11:18:46.179Z,40.36
2023-04-05T11:22:54.324Z,40.08
2023-04-05T11:26:56.681Z,38.67
2023-04-05T11:31:12.867Z,39.14
2023-04-05T11:35:25.042Z,39.79
2023-04-05T11:39:27.752Z,39.30
2023-04-05T11:43:30.160Z,39.29
2023-04-05T11:47:36.903Z,39.66
2023-04-05T11:51:42.682Z,39.72
2023-04-05T11:55:46.882Z,39.97
2023-04-05T11:59:53.253Z,39.58
2023-04-05T12:03:56.578Z,38.54
2023-04-05T12:07:58.644Z,38.74
2023-04-05T12:12:00.622Z,37.75
2023-04-05T12:16:07.599Z,38.00
2023-04-05T12:20:11.623Z,38.13
2023-04-05T12:24:13.890Z,38.03
2023-04-05T12:28:16.123Z,37.46
2023-04-05T12:32:18.497Z,37.09
2023-04-05T12:36:23.490Z,34.74
2023-04-05T12:40:25.783Z,35.64
2023-04-05T12:44:30.056Z,35.86
2023-04-05T12:48:32.074Z,35.24
2023-04-05T12:52:34.086Z,35.49
2023-04-05T12:56:38.256Z,35.09
2023-04-05T13:00:40.837Z,33.31
2023-04-05T13:04:42.948Z,34.25
2023-04-05T13:08:44.944Z,34.71
2023-04-05T13:12:47.415Z,34.14
2023-04-05T13:16:49.394Z,33.64
2023-04-05T13:20:51.441Z,34.32
2023-04-05T13:24:53.898Z,33.46
2023-04-05T13:28:55.947Z,33.37
2023-04-05T13:32:58.118Z,33.51
2023-04-05T13:37:00.378Z,33.75
2023-04-05T13:41:02.399Z,34.09
2023-04-05T13:45:05.269Z,33.86
2023-04-05T13:49:07.244Z,33.09
2023-04-05T13:53:09.350Z,34.25
2023-04-05T13:57:11.952Z,34.11
2023-04-05T14:01:13.988Z,34.29
2023-04-05T14:05:17.096Z,34.25
2023-04-05T14:09:19.102Z,33.73
2023-04-05T14:13:21.388Z,33.69
2023-04-05T14:17:23.488Z,33.92
2023-04-05T14:21:26.180Z,33.60
2023-04-05T14:25:28.149Z,33.41
2023-04-05T14:29:30.168Z,34.13
2023-04-05T14:33:32.139Z,33.92
2023-04-05T14:37:34.136Z,34.64
2023-04-05T14:41:36.435Z,34.60
2023-04-05T14:45:38.638Z,34.47
2023-04-05T14:49:40.733Z,34.33
2023-04-05T14:53:42.854Z,34.58
2023-04-05T14:57:44.942Z,34.28
2023-04-05T15:01:47.321Z,34.36
2023-04-05T15:05:49.426Z,34.74
2023-04-05T15:09:51.566Z,35.18
2023-04-05T15:13:53.699Z,34.82
2023-04-05T15:17:55.898Z,34.93
2023-04-05T15:21:58.002Z,34.90
2023-04-05T15:25:59.988Z,35.20
2023-04-05T15:30:02.129Z,35.58
2023-04-05T15:34:05.301Z,35.86
2023-04-05T15:38:08.347Z,35.75
2023-04-05T15:42:10.601Z,35.28
2023-04-05T15:46:12.620Z,35.71
2023-04-05T15:50:14.660Z,35.53
2023-04-05T15:54:18.849Z,35.28
2023-04-05T15:58:21.011Z,36.21
2023-04-05T16:02:23.242Z,36.54
2023-04-05T16:06:28.131Z,35.91
2023-04-05T16:10:30.223Z,35.93
2023-04-05T16:14:32.815Z,36.35
2023-04-05T16:18:34.800Z,35.99
2023-04-05T16:22:36.977Z,36.15
2023-04-05T16:26:38.941Z,36.31
2023-04-05T16:30:41.638Z,36.02
2023-04-05T16:34:43.715Z,36.16
2023-04-05T16:38:47.477Z,36.32
2023-04-05T16:42:49.516Z,36.40
2023-04-05T16:46:52.326Z,36.55
2023-04-05T16:50:54.328Z,37.27
2023-04-05T16:54:57.311Z,37.51
2023-04-05T16:58:59.495Z,37.73
2023-04-05T17:03:01.971Z,37.28
2023-04-05T17:07:04.095Z,37.29
2023-04-05T17:11:06.747Z,37.06
2023-04-05T17:15:10.436Z,36.94
2023-04-05T17:19:12.436Z,36.77
2023-04-05T17:23:14.493Z,37.26
2023-04-05T17:27:16.505Z,37.69
2023-04-05T17:31:19.304Z,37.86
2023-04-05T17:35:21.607Z,38.05
2023-04-05T17:39:25.474Z,38.05
2023-04-05T17:43:27.513Z,38.25
2023-04-05T17:47:29.593Z,38.91
2023-04-05T17:51:32.334Z,38.81
2023-04-05T17:55:34.392Z,39.00
2023-04-05T17:59:36.448Z,39.35
2023-04-05T18:03:38.557Z,40.07
2023-04-05T18:07:42.439Z,41.59
2023-04-05T18:11:44.460Z,42.54
2023-04-05T18:15:46.554Z,42.99
2023-04-05T18:19:49.425Z,43.65
2023-04-05T18:23:52.732Z,45.03
2023-04-05T18:27:55.889Z,46.18
2023-04-05T18:31:58.062Z,47.12
2023-04-05T18:36:00.273Z,48.07
2023-04-05T18:40:06.234Z,48.66
2023-04-05T18:44:09.063Z,49.19
2023-04-05T18:48:11.426Z,49.59
2023-04-05T18:52:13.522Z,50.33
2023-04-05T18:56:16.348Z,50.57
2023-04-05T19:00:18.537Z,50.96
2023-04-05T19:04:20.699Z,51.77
2023-04-05T19:08:22.733Z,52.08
2023-04-05T19:12:24.747Z,52.32
2023-04-05T19:16:26.927Z,52.34
2023-04-05T19:20:28.936Z,52.82
2023-04-05T19:24:31.134Z,52.98
2023-04-05T19:28:33.178Z,53.10
2023-04-05T19:32:35.264Z,53.03
2023-04-05T19:36:38.079Z,53.42
2023-04-05T19:40:42.124Z,53.91
2023-04-05T19:44:54.957Z,53.94
2023-04-05T19:49:07.642Z,53.77
2023-04-05T19:53:09.777Z,54.13
2023-04-05T19:57:17.830Z,54.73
2023-04-05T20:01:29.167Z,54.70
2023-04-05T20:05:43.430Z,55.46
2023-04-05T20:09:45.536Z,54.98
2023-04-05T20:13:49.150Z,54.70
2023-04-05T20:17:51.387Z,54.74
2023-04-05T20:21:53.442Z,55.89
2023-04-05T20:25:55.852Z,54.89
2023-04-05T20:29:57.864Z,55.17
2023-04-05T20:34:12.620Z,55.86
2023-04-05T20:38:14.577Z,56.29
2023-04-05T20:42:16.587Z,56.90
2023-04-05T20:46:18.588Z,57.20
2023-04-05T20:50:20.580Z,57.27
2023-04-05T20:54:22.913Z,57.78
2023-04-05T20:58:24.963Z,57.55
2023-04-05T21:02:27.015Z,58.64
2023-04-05T21:06:29.064Z,59.88
2023-04-05T21:10:32.578Z,60.22
2023-04-05T21:14:34.541Z,60.53
2023-04-05T21:18:36.607Z,61.12
2023-04-05T21:22:38.655Z,61.24
2023-04-05T21:26:40.619Z,61.67
2023-04-05T21:30:43.226Z,62.12
2023-04-05T21:34:45.352Z,63.04
2023-04-05T21:38:47.334Z,63.17
2023-04-05T21:42:49.322Z,64.06
2023-04-05T21:46:51.329Z,64.62
2023-04-05T21:50:53.395Z,64.28
2023-04-05T21:54:55.632Z,63.87
2023-04-05T21:58:57.693Z,64.81
2023-04-05T22:03:00.130Z,64.63
2023-04-05T22:07:02.211Z,64.00
2023-04-05T22:11:04.196Z,63.52
2023-04-05T22:15:06.659Z,64.67
2023-04-05T22:19:11.638Z,65.59
2023-04-05T22:23:13.617Z,65.65
2023-04-05T22:27:15.715Z,65.38
2023-04-05T22:31:17.700Z,65.23
2023-04-05T22:35:19.683Z,64.91
2023-04-05T22:39:21.713Z,65.50
2023-04-05T22:43:24.053Z,65.94
2023-04-05T22:47:26.435Z,67.10
2023-04-05T22:51:29.449Z,66.92
2023-04-05T22:55:31.426Z,67.14
2023-04-05T22:59:33.477Z,68.65
2023-04-05T23:03:35.734Z,69.27
2023-04-05T23:07:37.794Z,68.79
2023-04-05T23:11:39.822Z,68.51
2023-04-05T23:15:41.865Z,68.66
2023-04-05T23:19:44.076Z,69.00
2023-04-05T23:23:46.088Z,69.56
2023-04-05T23:27:48.149Z,69.56
2023-04-05T23:31:50.318Z,69.92
2023-04-05T23:35:52.459Z,69.33
2023-04-05T23:39:54.463Z,69.33
2023-04-05T23:43:56.839Z,70.38
2023-04-05T23:47:58.856Z,70.88
2023-04-05T23:52:00.901Z,70.67
2023-04-05T23:56:03.067Z,69.89
